Saturday, July 26, 2014
03:12 UTC
  |  Log In   |  Register Free
Airport Search:

South Alabama Regional At Bill Benton Field Airport
(79J)

South Alabama Regional At Bill Benton Field Airport Diagram
No Airport Diagram Available

FAA data valid effective July 24, 2014 until September 18, 2014 (unless otherwise noted).

 
 
 
 
 
 
 
 
 
 
 
 
 
 

Current Aviation Weather for South Alabama Regional At Bill Benton Field Airport (79J)

The most recent METAR observation for KLOR was updated at: 0253 UTC
METAR Summary (Translated METAR)
KLOR
260253Z AUTO 18003KT 10SM BKN110 27/24 A3001 RMK AO2 SLP157 T02670239 51012 TSNO $
KOZR
(5.2 nm SE from KLOR)
260158Z AUTO 11003KT 10SM BKN130 27/24 A3001 RMK AO2 LTG DSNT SW SLP162 T02670241
TAF Summary (Translated TAF)
KOZR
(5.2 nm SE from KLOR)
2600/2706 21007KT 9999 VCTS SCT035CB QNH2995INS TEMPO 2600/2603 19010G15KT 8000 -TSRA BKN030 BECMG 2605/2606 23007KT 9999 NSW SCT015 SCT035 QNH2998INS BECMG 2616/2617 21009KT 9999 VCSH SCT020 QNH3003INS BECMG 2701/2702 22007KT 9999 NSW FEW015 QNH2998INS TX34/2620Z TN23/2610Z
KDHN
(15.6 nm SE from KLOR)
251723Z 2518/2618 22008KT P6SM VCTS BKN040CB TEMPO 2520/2524 3SM TSRA OVC040CB FM260000 22005KT P6SM SCT250 FM260800 23003KT 3SM BR SKC FM261200 26006KT P6SM SCT040
  Airport Weather Conditions for 79J

Current weather conditions are
not available for 79J


The nearest NOAA weather station
is at CEW, (32.5 nm SW from 79J)
  
 Current Weather at CEW
77° F
Fog/Mist
South winds at 5.8 mph
CEW NOAA Radar

Pressure: 30.04 in
Humidity: 96%
Wind: South at 5.8 MPH (5 KT)
Dew Point: 75.9°F
Visibility: 4.00 mi


Airport Weather Forecast for 79J

Translated METAR and TAF for KLOR
Translated METAR for KLOR (0306 UTC 26 July 2014)
found at http://aviationweather.gov/adds/metars/
 
METAR text: KLOR 260253Z AUTO 18003KT 10SM BKN110 27/24 A3001 RMK AO2 SLP157 T02670239 51012 TSNO $
Conditions at: KLOR (LOWE AHP/FT. RUC, AL, US) observed 0253 UTC 26 July 2014
Temperature: 26.7°C (80°F)
Dewpoint: 23.9°C (75°F) [RH = 85%]
Pressure (altimeter): 30.01 inches Hg (1016.3 mb)
[Sea-level pressure: 1015.7 mb]
Winds: from the S (180 degrees) at 3 MPH (3 knots; 1.6 m/s)
Visibility: 10 or more miles (16+ km)
Ceiling: 11000 feet AGL
Clouds: broken clouds at 11000 feet AGL
Weather:
SOME DATA ABOVE MAY BE INACCURATE!!!
"$" is an indication the sensor requires maintenance
Translated TAF for KLOR

There is no translated TAF available for this airport

Find All Airport Services Find A Hotel Find A Rental Car Find A Golf Course Find A Restaurant $100 Hamburger



FBO's on the Field
FBO Company Facility Photos Services Transportation Aviation Fuel Prices: Prices include tax
Catering Weather Repair Courtesy Rental Type 100LL JetA JetA+ MOGAS 8087
 
South Alabama Regional Airport

This FBO has not yet been rated
FS:Independent
Last Updated: Jul-03
Login to update fuel prices
SS:
Contact South Alabama Regional AirportMore FBO Information
 
Add another FBO Facility Photos Catering Weather Repair Courtesy Rental Type 100LL JetA JetA+ MOGAS 8087
Services Transportation Aviation Fuel Prices: Prices include tax


GlobalAir.com Airport Resource Center model-print
model-print
model-print
model-print